createdAt,value
2017-08-01T00:01:52.053Z,18.37
2017-08-01T00:04:19.975Z,16.80
2017-08-01T00:06:51.828Z,17.27
2017-08-01T00:09:19.950Z,18.63
2017-08-01T00:11:48.284Z,17.90
2017-08-01T00:14:16.816Z,21.40
2017-08-01T00:16:45.885Z,20.70
2017-08-01T00:19:14.326Z,18.67
2017-08-01T00:21:42.788Z,15.90
2017-08-01T00:24:10.842Z,16.47
2017-08-01T00:26:38.762Z,18.60
2017-08-01T00:29:06.778Z,15.80
2017-08-01T00:31:35.163Z,19.30
2017-08-01T00:34:03.184Z,20.03
2017-08-01T00:36:31.205Z,17.23
2017-08-01T00:38:59.575Z,17.63
2017-08-01T00:41:27.557Z,20.50
2017-08-01T00:43:55.678Z,17.83
2017-08-01T00:46:23.850Z,18.40
2017-08-01T00:48:51.780Z,17.07
2017-08-01T00:51:20.220Z,19.20
2017-08-01T00:53:48.323Z,17.67
2017-08-01T00:56:17.319Z,17.10
2017-08-01T00:58:45.734Z,17.50
2017-08-01T01:01:27.986Z,16.40
2017-08-01T01:06:41.182Z,21.93
2017-08-01T01:09:09.237Z,17.80
2017-08-01T01:11:37.413Z,16.97
2017-08-01T01:14:06.297Z,17.70
2017-08-01T01:16:34.283Z,16.77
2017-08-01T01:19:03.499Z,14.13
2017-08-01T01:21:31.567Z,14.00
2017-08-01T01:24:00.155Z,14.83
2017-08-01T01:26:28.426Z,13.87
2017-08-01T01:28:56.510Z,11.50
2017-08-01T01:31:24.633Z,11.97
2017-08-01T01:39:28.546Z,17.37
2017-08-01T01:44:32.749Z,17.63
2017-08-01T01:49:49.251Z,13.90
2017-08-01T01:52:17.268Z,15.90
2017-08-01T01:54:45.311Z,17.50
2017-08-01T01:57:13.770Z,17.13
2017-08-01T02:02:29.107Z,19.80
2017-08-01T02:04:58.375Z,17.97
2017-08-01T02:07:26.857Z,14.57
2017-08-01T02:10:02.912Z,17.03
2017-08-01T02:12:31.298Z,18.90
2017-08-01T02:15:00.598Z,19.50
2017-08-01T02:17:28.653Z,17.80
2017-08-01T02:19:56.784Z,20.73
2017-08-01T02:22:36.204Z,20.57
2017-08-01T02:25:17.475Z,18.30
2017-08-01T02:27:45.516Z,20.13
2017-08-01T02:30:13.439Z,16.90
2017-08-01T02:32:42.422Z,20.20
2017-08-01T02:35:10.457Z,19.90
2017-08-01T02:40:26.277Z,17.17
2017-08-01T02:42:54.576Z,16.07
2017-08-01T02:45:22.602Z,22.10
2017-08-01T02:50:38.137Z,17.30
2017-08-01T02:53:06.090Z,17.90
2017-08-01T02:55:34.192Z,19.40
2017-08-01T02:58:02.287Z,16.77
2017-08-01T03:08:53.458Z,16.43
2017-08-01T03:11:21.419Z,18.57
2017-08-01T03:19:37.918Z,16.13
2017-08-01T03:27:58.455Z,16.93
2017-08-01T03:30:26.502Z,17.10
2017-08-01T03:32:54.975Z,15.50
2017-08-01T03:35:24.547Z,18.63
2017-08-01T03:37:58.369Z,18.40
2017-08-01T03:40:45.343Z,17.37
2017-08-01T03:48:51.790Z,20.03
2017-08-01T03:51:21.048Z,20.50
2017-08-01T03:53:49.301Z,20.90
2017-08-01T03:58:56.979Z,19.63
2017-08-01T04:01:26.884Z,17.77
2017-08-01T04:03:55.376Z,19.00
2017-08-01T04:06:23.577Z,19.50
2017-08-01T04:08:52.116Z,17.07
2017-08-01T04:11:20.505Z,18.10
2017-08-01T04:13:48.712Z,19.30
2017-08-01T04:16:29.528Z,19.43
2017-08-01T04:19:01.290Z,16.90
2017-08-01T04:21:37.827Z,20.27
2017-08-01T04:24:05.830Z,18.60
2017-08-01T04:26:40.148Z,18.27
2017-08-01T04:29:08.333Z,18.17
2017-08-01T04:31:36.329Z,18.03
2017-08-01T04:34:04.334Z,20.33
2017-08-01T04:36:32.323Z,17.83
2017-08-01T04:39:00.201Z,22.03
2017-08-01T04:41:28.156Z,21.00
2017-08-01T04:44:00.355Z,20.80
2017-08-01T04:46:28.801Z,18.20
2017-08-01T04:48:56.919Z,18.87
2017-08-01T04:51:24.944Z,19.57
2017-08-01T04:53:52.998Z,18.23
2017-08-01T04:56:20.896Z,15.70
2017-08-01T04:58:49.034Z,19.50
2017-08-01T05:01:17.059Z,17.43
2017-08-01T05:03:51.486Z,18.40
2017-08-01T05:09:06.986Z,17.00
2017-08-01T05:11:35.019Z,17.93
2017-08-01T05:14:03.090Z,17.77
2017-08-01T05:16:33.227Z,17.10
2017-08-01T05:19:01.420Z,18.67
2017-08-01T05:21:36.182Z,17.63
2017-08-01T05:24:04.863Z,17.00
2017-08-01T05:26:32.780Z,17.97
2017-08-01T05:29:00.787Z,19.13
2017-08-01T05:31:28.717Z,18.77
2017-08-01T05:34:00.898Z,17.30
2017-08-01T05:36:29.146Z,16.53
2017-08-01T05:38:57.180Z,21.77
2017-08-01T05:41:25.103Z,20.03
2017-08-01T05:43:53.265Z,21.20
2017-08-01T05:46:21.465Z,20.23
2017-08-01T05:48:56.653Z,16.80
2017-08-01T05:54:30.540Z,16.83
2017-08-01T05:56:58.599Z,18.63
2017-08-01T05:59:26.898Z,17.93
2017-08-01T06:01:54.952Z,16.57
2017-08-01T06:04:23.575Z,18.13
2017-08-01T06:06:51.603Z,17.20
2017-08-01T06:11:55.610Z,16.47
2017-08-01T06:14:23.561Z,18.43
2017-08-01T06:16:51.467Z,18.23
2017-08-01T06:19:19.380Z,19.07
2017-08-01T06:21:47.562Z,18.83
2017-08-01T06:24:15.606Z,19.53
2017-08-01T06:26:43.910Z,18.27
2017-08-01T06:29:12.322Z,19.27
2017-08-01T06:31:40.506Z,15.97
2017-08-01T06:34:08.745Z,16.30
2017-08-01T06:36:36.676Z,17.30
2017-08-01T06:39:04.857Z,19.50
2017-08-01T06:41:32.804Z,17.70
2017-08-01T06:44:00.793Z,17.33
2017-08-01T06:46:28.770Z,17.20
2017-08-01T06:48:56.755Z,18.60
2017-08-01T06:51:24.989Z,15.20
2017-08-01T06:53:52.955Z,17.40
2017-08-01T06:56:20.843Z,17.77
2017-08-01T06:58:56.131Z,15.53
2017-08-01T07:01:24.329Z,18.80
2017-08-01T07:03:52.233Z,14.13
2017-08-01T07:06:20.132Z,15.20
2017-08-01T07:08:48.028Z,15.87
2017-08-01T07:11:15.964Z,15.30
2017-08-01T07:16:31.941Z,14.60
2017-08-01T07:18:59.973Z,14.00
2017-08-01T07:21:27.871Z,14.10
2017-08-01T07:23:55.996Z,15.17
2017-08-01T07:26:23.970Z,15.00
2017-08-01T07:28:52.579Z,15.33
2017-08-01T07:31:20.521Z,14.33
2017-08-01T07:33:48.952Z,15.77
2017-08-01T07:36:16.893Z,15.67
2017-08-01T07:38:44.899Z,14.30
2017-08-01T07:41:12.861Z,13.70
2017-08-01T07:43:40.741Z,13.00
2017-08-01T07:46:08.657Z,13.40
2017-08-01T07:48:36.833Z,11.67
2017-08-01T07:51:04.962Z,16.97
2017-08-01T07:53:33.382Z,16.20
2017-08-01T07:56:15.167Z,13.83
2017-08-01T07:58:43.090Z,15.07
2017-08-01T08:01:11.036Z,17.03
2017-08-01T08:03:39.060Z,19.30
2017-08-01T08:06:07.291Z,14.80
2017-08-01T08:08:35.326Z,13.33
2017-08-01T08:11:04.387Z,13.27
2017-08-01T08:13:32.548Z,17.60
2017-08-01T08:16:00.558Z,12.63
2017-08-01T08:18:28.459Z,12.73
2017-08-01T08:20:56.378Z,15.10
2017-08-01T08:23:24.271Z,14.60
2017-08-01T08:25:52.222Z,14.17
2017-08-01T08:28:20.130Z,13.17
2017-08-01T08:30:48.035Z,15.77
2017-08-01T08:33:15.937Z,16.07
2017-08-01T08:35:43.856Z,15.00
2017-08-01T08:38:11.840Z,15.50
2017-08-01T08:40:39.705Z,15.63
2017-08-01T08:43:07.648Z,20.13
2017-08-01T08:45:35.544Z,16.13
2017-08-01T08:48:03.501Z,18.43
2017-08-01T08:50:31.598Z,15.40
2017-08-01T08:52:59.790Z,18.90
2017-08-01T08:55:28.507Z,15.17
2017-08-01T08:57:56.534Z,17.10
2017-08-01T09:00:24.577Z,16.33
2017-08-01T09:02:52.495Z,14.23
2017-08-01T09:05:20.637Z,12.20
2017-08-01T09:07:48.560Z,15.07
2017-08-01T09:10:16.840Z,15.37
2017-08-01T09:12:44.958Z,16.00
2017-08-01T09:15:13.338Z,15.63
2017-08-01T09:17:41.310Z,12.70
2017-08-01T09:20:09.837Z,13.50
2017-08-01T09:22:37.867Z,13.20
2017-08-01T09:25:06.775Z,13.03
2017-08-01T09:27:34.723Z,11.97
2017-08-01T09:30:02.703Z,12.30
2017-08-01T09:32:30.667Z,12.57
2017-08-01T09:34:58.546Z,13.60
2017-08-01T09:37:26.478Z,14.57
2017-08-01T09:39:54.369Z,12.83
2017-08-01T09:42:20.985Z,12.50
2017-08-01T09:45:07.250Z,13.03
2017-08-01T09:47:33.881Z,13.37
2017-08-01T09:50:02.186Z,11.63
2017-08-01T09:52:28.830Z,10.27
2017-08-01T09:54:55.210Z,12.53
2017-08-01T09:57:23.119Z,12.20
2017-08-01T09:59:49.501Z,10.20
2017-08-01T10:02:15.851Z,13.90
2017-08-01T10:04:42.419Z,11.50
2017-08-01T10:07:22.330Z,10.63
2017-08-01T10:13:05.679Z,8.77
2017-08-01T10:18:24.891Z,10.20
2017-08-01T10:20:51.476Z,9.97
2017-08-01T10:23:20.661Z,11.27
2017-08-01T10:25:48.580Z,11.17
2017-08-01T10:28:26.645Z,10.53
2017-08-01T10:31:15.454Z,9.23
2017-08-01T10:33:42.172Z,9.27
2017-08-01T10:36:13.006Z,9.17
2017-08-01T10:38:39.860Z,10.40
2017-08-01T10:41:06.693Z,10.80
2017-08-01T10:43:36.753Z,10.10
2017-08-01T10:46:06.045Z,9.70
2017-08-01T10:48:58.883Z,10.27
2017-08-01T10:51:25.210Z,9.70
2017-08-01T10:56:44.271Z,9.80
2017-08-01T10:59:33.038Z,11.80
2017-08-01T11:01:59.523Z,8.53
2017-08-01T11:04:26.686Z,11.00
2017-08-01T11:06:57.668Z,9.10
2017-08-01T11:09:24.303Z,11.67
2017-08-01T11:11:50.750Z,12.80
2017-08-01T11:14:17.187Z,11.17
2017-08-01T11:16:44.056Z,10.20
2017-08-01T11:19:15.827Z,9.63
2017-08-01T11:21:42.212Z,10.20
2017-08-01T11:27:10.409Z,13.43
2017-08-01T11:32:28.787Z,12.00
2017-08-01T11:35:05.375Z,11.77
2017-08-01T11:37:32.063Z,14.97
2017-08-01T11:39:59.805Z,13.17
2017-08-01T11:45:24.077Z,12.80
2017-08-01T11:47:50.323Z,12.97
2017-08-01T11:50:17.470Z,14.63
2017-08-01T11:52:45.424Z,13.37
2017-08-01T11:55:11.703Z,15.30
2017-08-01T11:57:38.184Z,11.80
2017-08-01T12:00:07.556Z,14.93
2017-08-01T12:02:44.299Z,14.37
2017-08-01T12:05:10.980Z,12.03
2017-08-01T12:07:37.531Z,11.30
2017-08-01T12:12:58.607Z,9.37
2017-08-01T12:15:33.327Z,8.63
2017-08-01T12:20:52.609Z,8.60
2017-08-01T12:23:18.863Z,9.30
2017-08-01T12:25:50.849Z,10.43
2017-08-01T12:31:27.704Z,10.00
2017-08-01T12:39:57.883Z,8.13
2017-08-01T12:42:47.074Z,10.47
2017-08-01T12:45:13.567Z,9.43
2017-08-01T12:47:40.835Z,10.37
2017-08-01T12:52:45.474Z,10.40
2017-08-01T12:55:18.288Z,9.83
2017-08-01T12:58:01.679Z,10.40
2017-08-01T13:03:22.007Z,9.77
2017-08-01T13:05:49.963Z,9.60
2017-08-01T13:08:21.023Z,11.17
2017-08-01T13:10:47.395Z,10.57
2017-08-01T13:19:26.103Z,9.00
